createdAt,value
2023-04-22T00:02:53.825Z,14.70
2023-04-22T00:07:55.481Z,14.70
2023-04-22T00:12:56.930Z,14.82
2023-04-22T00:17:59.082Z,13.73
2023-04-22T00:23:00.628Z,13.80
2023-04-22T00:28:02.079Z,14.13
2023-04-22T00:33:03.776Z,14.40
2023-04-22T00:38:05.372Z,12.88
2023-04-22T00:43:08.955Z,12.90
2023-04-22T00:48:10.585Z,13.25
2023-04-22T00:53:12.196Z,13.70
2023-04-22T00:58:14.193Z,13.55
2023-04-22T01:03:15.819Z,13.73
2023-04-22T01:08:17.568Z,14.23
2023-04-22T01:13:19.024Z,15.27
2023-04-22T01:18:20.641Z,14.77
2023-04-22T01:23:22.637Z,15.40
2023-04-22T01:28:24.609Z,16.20
2023-04-22T01:33:26.394Z,16.33
2023-04-22T01:38:28.879Z,16.35
2023-04-22T01:43:33.660Z,16.30
2023-04-22T01:48:35.967Z,16.17
2023-04-22T01:53:37.462Z,15.20
2023-04-22T01:58:40.437Z,16.00
2023-04-22T02:03:42.074Z,16.33
2023-04-22T02:08:43.637Z,16.20
2023-04-22T02:13:45.060Z,15.38
2023-04-22T02:18:46.476Z,16.45
2023-04-22T02:23:47.945Z,15.95
2023-04-22T02:28:49.390Z,16.15
2023-04-22T02:33:51.046Z,16.48
2023-04-22T02:38:52.464Z,14.95
2023-04-22T02:43:53.907Z,15.88
2023-04-22T02:48:55.519Z,15.57
2023-04-22T02:53:56.969Z,16.13
2023-04-22T02:58:58.402Z,16.38
2023-04-22T03:04:00.072Z,16.55
2023-04-22T03:09:01.898Z,16.67
2023-04-22T03:14:03.340Z,16.00
2023-04-22T03:19:04.787Z,15.43
2023-04-22T03:24:06.438Z,15.88
2023-04-22T03:29:07.910Z,14.90
2023-04-22T03:34:09.361Z,15.32
2023-04-22T03:39:10.798Z,16.13
2023-04-22T03:44:12.217Z,15.60
2023-04-22T03:49:13.686Z,16.10
2023-04-22T03:54:15.219Z,15.13
2023-04-22T03:59:18.073Z,14.82
2023-04-22T04:04:20.428Z,15.25
2023-04-22T04:09:22.128Z,15.15
2023-04-22T04:14:23.612Z,15.35
2023-04-22T04:19:25.125Z,15.82
2023-04-22T04:24:26.594Z,15.55
2023-04-22T04:29:28.090Z,16.65
2023-04-22T04:34:29.516Z,18.52
2023-04-22T04:39:31.056Z,19.65
2023-04-22T04:44:32.466Z,18.15
2023-04-22T04:49:39.813Z,19.90
2023-04-22T04:54:41.456Z,18.40
2023-04-22T04:59:42.893Z,18.20
2023-04-22T05:04:44.419Z,18.42
2023-04-22T05:09:45.930Z,17.05
2023-04-22T05:14:47.364Z,16.40
2023-04-22T05:19:48.880Z,17.55
2023-04-22T05:24:50.390Z,16.65
2023-04-22T05:29:51.815Z,16.65
2023-04-22T05:34:53.238Z,15.82
2023-04-22T05:39:54.813Z,16.38
2023-04-22T05:44:56.311Z,16.75
2023-04-22T05:49:57.747Z,15.75
2023-04-22T05:54:59.163Z,16.33
2023-04-22T06:00:00.842Z,15.80
2023-04-22T06:05:02.593Z,14.82
2023-04-22T06:10:05.627Z,15.10
2023-04-22T06:15:07.629Z,13.63
2023-04-22T06:20:09.428Z,14.82
2023-04-22T06:25:10.914Z,14.70
2023-04-22T06:30:12.628Z,15.07
2023-04-22T06:35:14.189Z,15.40
2023-04-22T06:40:15.731Z,15.00
2023-04-22T06:45:17.250Z,15.70
2023-04-22T06:50:18.741Z,15.32
2023-04-22T06:55:20.232Z,15.20
2023-04-22T07:00:21.696Z,14.23
2023-04-22T07:05:23.163Z,13.45
2023-04-22T07:10:24.569Z,14.40
2023-04-22T07:15:26.042Z,14.50
2023-04-22T07:20:27.501Z,14.85
2023-04-22T07:25:29.047Z,13.70
2023-04-22T07:30:30.762Z,14.20
2023-04-22T07:35:32.221Z,15.15
2023-04-22T07:40:33.632Z,14.93
2023-04-22T07:45:35.206Z,16.08
2023-04-22T07:50:38.593Z,14.30
2023-04-22T07:55:40.353Z,15.82
2023-04-22T08:00:42.110Z,15.85
2023-04-22T08:05:43.620Z,15.95
2023-04-22T08:10:45.044Z,16.08
2023-04-22T08:15:46.608Z,15.13
2023-04-22T08:20:48.074Z,14.88
2023-04-22T08:25:49.992Z,15.68
2023-04-22T08:30:51.434Z,13.00
2023-04-22T08:35:53.052Z,13.32
2023-04-22T08:40:57.014Z,16.05
2023-04-22T08:45:58.521Z,13.50
2023-04-22T08:51:00.526Z,15.15
2023-04-22T08:56:02.066Z,14.77
2023-04-22T09:01:03.789Z,12.65
2023-04-22T09:06:06.267Z,11.00
2023-04-22T09:11:07.730Z,11.00
2023-04-22T09:16:10.121Z,12.25
2023-04-22T09:21:11.679Z,9.40
2023-04-22T09:26:15.034Z,9.30
2023-04-22T09:31:16.568Z,8.05
2023-04-22T09:36:22.580Z,7.90
2023-04-22T09:41:31.555Z,6.82
2023-04-22T09:46:33.980Z,6.07
2023-04-22T09:51:35.557Z,5.65
2023-04-22T09:56:50.239Z,5.70
2023-04-22T10:02:07.163Z,6.30
2023-04-22T10:07:08.769Z,4.90
2023-04-22T10:12:11.285Z,5.72
2023-04-22T10:17:13.525Z,5.60
2023-04-22T10:22:15.331Z,5.88
2023-04-22T10:27:21.556Z,6.55
2023-04-22T10:32:22.933Z,5.40
2023-04-22T10:37:25.377Z,6.18
2023-04-22T10:42:28.528Z,5.72
2023-04-22T10:47:32.550Z,5.53
2023-04-22T10:52:34.035Z,4.85
2023-04-22T10:57:43.844Z,5.40
2023-04-22T11:02:46.533Z,5.75
2023-04-22T11:07:53.906Z,5.90
2023-04-22T11:12:55.715Z,6.57
2023-04-22T11:17:57.608Z,4.72
2023-04-22T11:22:59.731Z,5.60
2023-04-22T11:28:01.278Z,6.00
2023-04-22T11:33:02.849Z,5.78
2023-04-22T11:38:06.106Z,6.15
2023-04-22T11:43:08.890Z,6.43
2023-04-22T11:48:11.822Z,5.50
2023-04-22T11:53:18.430Z,5.45
2023-04-22T11:58:25.222Z,5.75
2023-04-22T12:03:28.918Z,5.68
2023-04-22T12:08:44.350Z,4.97
2023-04-22T12:13:46.724Z,5.50
2023-04-22T12:18:48.091Z,4.78
2023-04-22T12:23:59.378Z,6.50
2023-04-22T12:29:01.230Z,5.15
2023-04-22T12:34:02.815Z,5.53
2023-04-22T12:39:04.824Z,5.43
2023-04-22T12:44:06.305Z,5.13
2023-04-22T12:49:07.793Z,5.85
2023-04-22T12:54:10.646Z,5.38
2023-04-22T12:59:12.937Z,6.18
2023-04-22T13:04:14.475Z,5.95
2023-04-22T13:09:16.515Z,5.90
2023-04-22T13:14:18.523Z,5.15
2023-04-22T13:19:20.068Z,5.10
2023-04-22T13:24:21.526Z,4.88
2023-04-22T13:29:23.213Z,5.00
2023-04-22T13:34:24.719Z,4.25
2023-04-22T13:39:26.293Z,4.60
2023-04-22T13:44:27.721Z,4.32
2023-04-22T13:49:29.278Z,5.10
2023-04-22T13:54:31.230Z,4.97
2023-04-22T13:59:35.087Z,5.10
2023-04-22T14:04:36.602Z,4.70
2023-04-22T14:09:38.232Z,5.30
2023-04-22T14:14:40.015Z,4.90
2023-04-22T14:19:42.324Z,5.55
2023-04-22T14:24:43.977Z,4.40
2023-04-22T14:29:46.149Z,4.88
2023-04-22T14:34:48.017Z,4.97
2023-04-22T14:39:49.514Z,5.30
2023-04-22T14:44:51.093Z,5.05
2023-04-22T14:49:52.595Z,5.13
2023-04-22T14:54:54.090Z,5.47
2023-04-22T14:59:55.542Z,5.82
2023-04-22T15:04:56.971Z,5.10
2023-04-22T15:10:01.310Z,6.03
2023-04-22T15:15:02.901Z,5.50
2023-04-22T15:20:06.532Z,4.60
2023-04-22T15:25:10.746Z,5.85
2023-04-22T15:30:12.462Z,5.93
2023-04-22T15:35:14.271Z,5.10
2023-04-22T15:40:15.783Z,6.22
2023-04-22T15:45:17.254Z,6.32
2023-04-22T15:50:19.286Z,5.18
2023-04-22T15:55:21.058Z,6.80
2023-04-22T16:00:22.548Z,7.38
2023-04-22T16:05:25.196Z,6.55
2023-04-22T16:10:27.923Z,6.40
2023-04-22T16:15:29.406Z,6.55
2023-04-22T16:20:31.159Z,6.32
2023-04-22T16:25:32.638Z,6.03
2023-04-22T16:30:34.175Z,6.35
2023-04-22T16:35:35.833Z,6.60
2023-04-22T16:40:38.699Z,6.20
2023-04-22T16:45:40.492Z,5.97
2023-04-22T16:50:41.950Z,7.35
2023-04-22T16:55:43.467Z,7.25
2023-04-22T17:00:47.494Z,8.52
2023-04-22T17:05:49.297Z,7.32
2023-04-22T17:10:52.369Z,6.97
2023-04-22T17:15:53.835Z,8.15
2023-04-22T17:20:55.901Z,8.10
2023-04-22T17:25:57.347Z,8.57
2023-04-22T17:30:58.910Z,9.07
2023-04-22T17:36:00.674Z,7.72
2023-04-22T17:41:02.286Z,8.13
2023-04-22T17:46:03.756Z,8.13
2023-04-22T17:51:06.563Z,9.05
2023-04-22T17:56:08.916Z,12.30
2023-04-22T18:01:10.539Z,9.00
2023-04-22T18:06:12.008Z,10.90
2023-04-22T18:11:13.586Z,13.02
2023-04-22T18:16:15.078Z,11.43
2023-04-22T18:21:16.942Z,11.30
2023-04-22T18:26:18.360Z,11.98
2023-04-22T18:31:20.661Z,14.23
2023-04-22T18:36:22.406Z,14.38
2023-04-22T18:41:25.482Z,14.60
2023-04-22T18:46:27.037Z,13.52
2023-04-22T18:51:30.119Z,13.35
2023-04-22T18:56:32.935Z,13.00
2023-04-22T19:01:35.522Z,13.32
2023-04-22T19:06:37.002Z,14.43
2023-04-22T19:11:38.511Z,14.73
2023-04-22T19:16:40.312Z,14.93
2023-04-22T19:21:41.830Z,14.55
2023-04-22T19:26:43.461Z,14.43
2023-04-22T19:31:45.579Z,15.27
2023-04-22T19:36:47.030Z,15.68
2023-04-22T19:41:48.580Z,15.85
2023-04-22T19:46:50.383Z,16.13
2023-04-22T19:51:52.854Z,16.60
2023-04-22T19:56:54.948Z,17.42
2023-04-22T20:01:56.576Z,17.88
2023-04-22T20:07:00.785Z,17.05
2023-04-22T20:12:05.103Z,17.30
2023-04-22T20:17:07.381Z,17.40
2023-04-22T20:22:09.557Z,17.63
2023-04-22T20:27:11.697Z,17.77
2023-04-22T20:32:13.328Z,16.85
2023-04-22T20:37:19.841Z,18.15
2023-04-22T20:42:23.192Z,18.80
2023-04-22T20:47:25.030Z,18.10
2023-04-22T20:52:26.627Z,17.52
2023-04-22T20:57:28.324Z,18.27
2023-04-22T21:02:31.536Z,17.73
2023-04-22T21:07:34.649Z,18.13
2023-04-22T21:12:36.652Z,20.17
2023-04-22T21:17:41.557Z,19.85
2023-04-22T21:22:44.070Z,20.52
2023-04-22T21:27:46.128Z,22.05
2023-04-22T21:32:47.635Z,22.08
2023-04-22T21:37:49.094Z,23.35
2023-04-22T21:42:51.025Z,22.30
2023-04-22T21:47:52.438Z,21.88
2023-04-22T21:52:53.917Z,23.75
2023-04-22T21:57:55.613Z,24.08
2023-04-22T22:02:57.257Z,24.67
2023-04-22T22:07:58.751Z,23.63
2023-04-22T22:13:00.783Z,23.77
2023-04-22T22:18:04.137Z,24.33
2023-04-22T22:23:05.616Z,25.63
2023-04-22T22:28:07.047Z,26.05
2023-04-22T22:33:08.707Z,24.30
2023-04-22T22:38:10.298Z,23.75
2023-04-22T22:43:13.419Z,23.08
2023-04-22T22:48:14.900Z,25.60
2023-04-22T22:53:16.555Z,25.52
2023-04-22T22:58:17.964Z,26.05
2023-04-22T23:03:20.008Z,27.23
2023-04-22T23:08:21.811Z,27.02
2023-04-22T23:13:23.288Z,26.83
2023-04-22T23:18:26.753Z,27.75
2023-04-22T23:23:29.812Z,26.30
2023-04-22T23:28:31.462Z,27.25
2023-04-22T23:33:35.060Z,27.35
2023-04-22T23:38:36.516Z,27.48
2023-04-22T23:43:37.930Z,27.10
2023-04-22T23:48:39.511Z,26.77
2023-04-22T23:53:40.947Z,26.02
2023-04-22T23:58:42.777Z,26.67
